Time;durP1;ratioP1;P1;durP2;ratioP2;P2;SDS_P1;SDS_P2;PMS_P1;PMS_P2;Temp;Humidity;BMP_temperature;BMP_pressure;BME280_temperature;BME280_humidity;BME280_pressure;Samples;Min_cycle;Max_cycle;Signal;HPM_P1;HPM_P2
2023/08/24 00:00:06;;;;;;;15.43;10.77;;;;;;;21.71;100.00;97466.28;5048002;28;20024;-80
2023/08/24 00:02:32;;;;;;;17.33;10.43;;;;;;;21.58;100.00;97469.47;5049138;28;20037;-80
2023/08/24 00:04:57;;;;;;;20.27;10.77;;;;;;;21.45;100.00;97467.22;5049176;28;20040;-80
2023/08/24 00:07:23;;;;;;;16.20;10.45;;;;;;;21.37;100.00;97460.91;5047700;28;20396;-80
2023/08/24 00:09:48;;;;;;;15.05;10.20;;;;;;;21.46;100.00;97470.78;5047877;28;20029;-80
2023/08/24 00:12:14;;;;;;;18.20;11.52;;;;;;;21.60;100.00;97464.69;5031321;28;20033;-80
2023/08/24 00:14:39;;;;;;;15.52;10.15;;;;;;;21.61;100.00;97470.00;5032428;28;20095;-80
2023/08/24 00:17:05;;;;;;;16.17;11.05;;;;;;;21.64;100.00;97468.81;5046432;28;20098;-80
2023/08/24 00:19:30;;;;;;;14.02;10.52;;;;;;;21.65;100.00;97466.94;5009963;28;20029;-79
2023/08/24 00:21:56;;;;;;;13.73;10.35;;;;;;;21.77;100.00;97466.47;5027927;28;20472;-79
2023/08/24 00:24:21;;;;;;;16.48;10.50;;;;;;;21.78;100.00;97468.16;5028861;28;20021;-79
2023/08/24 00:26:47;;;;;;;12.82;10.07;;;;;;;21.76;100.00;97463.91;5027784;28;20025;-79
2023/08/24 00:29:12;;;;;;;16.45;11.52;;;;;;;21.78;100.00;97462.72;5028426;28;20022;-79
2023/08/24 00:31:38;;;;;;;15.80;11.30;;;;;;;21.79;100.00;97458.13;5034537;28;20045;-81
2023/08/24 00:34:04;;;;;;;16.50;10.27;;;;;;;21.76;100.00;97462.03;5049426;28;20021;-81
2023/08/24 00:36:29;;;;;;;15.68;10.90;;;;;;;21.73;100.00;97453.34;5033255;28;20107;-81
2023/08/24 00:38:55;;;;;;;15.75;10.05;;;;;;;21.71;100.00;97456.25;5049885;28;20399;-81
2023/08/24 00:41:21;;;;;;;14.98;10.32;;;;;;;21.67;100.00;97454.88;5048379;28;20020;-81
2023/08/24 00:43:46;;;;;;;17.20;10.68;;;;;;;21.66;100.00;97457.78;5039996;28;20029;-79
2023/08/24 00:46:13;;;;;;;15.32;10.30;;;;;;;21.67;100.00;97456.72;5048622;28;20056;-79
2023/08/24 00:48:38;;;;;;;18.60;11.23;;;;;;;21.78;100.00;97470.88;5029676;28;20461;-79
2023/08/24 00:51:04;;;;;;;21.05;11.27;;;;;;;21.67;100.00;97468.47;5010786;28;20029;-79
2023/08/24 00:53:30;;;;;;;16.65;10.85;;;;;;;21.53;100.00;97466.41;5036393;28;20017;-77
2023/08/24 00:55:55;;;;;;;14.48;10.73;;;;;;;21.40;100.00;97466.00;5035853;28;20030;-78
2023/08/24 00:58:21;;;;;;;14.95;10.98;;;;;;;21.29;100.00;97472.59;5016205;28;20040;-78
2023/08/24 01:00:49;;;;;;;16.92;10.32;;;;;;;21.42;100.00;97474.84;5033008;28;20037;-78
2023/08/24 01:03:14;;;;;;;16.23;11.20;;;;;;;21.37;100.00;97477.22;5015704;28;20033;-78
2023/08/24 01:05:40;;;;;;;15.35;10.48;;;;;;;21.26;100.00;97472.06;5032053;28;20032;-79
2023/08/24 01:08:05;;;;;;;17.40;11.80;;;;;;;21.19;100.00;97469.16;5047015;28;20112;-78
2023/08/24 01:10:45;;;;;;;20.48;10.88;;;;;;;21.17;100.00;97468.44;5037843;28;20108;-78
2023/08/24 01:13:12;;;;;;;18.30;11.77;;;;;;;20.99;100.00;97468.50;5027137;28;20101;-78
2023/08/24 01:16:17;;;;;;;14.35;10.95;;;;;;;20.86;100.00;97469.94;5045829;28;20052;-77
2023/08/24 01:18:43;;;;;;;16.83;11.05;;;;;;;20.66;100.00;97460.31;5009497;28;20029;-78
2023/08/24 01:21:08;;;;;;;15.43;11.23;;;;;;;20.66;100.00;97466.59;4987885;28;20090;-78
2023/08/24 01:23:46;;;;;;;18.10;12.07;;;;;;;20.76;100.00;97461.06;5024792;28;20105;-78
2023/08/24 01:26:14;;;;;;;21.90;11.82;;;;;;;20.80;100.00;97474.16;5030027;28;20037;-78
2023/08/24 01:28:41;;;;;;;16.85;11.27;;;;;;;20.77;100.00;97463.59;5034274;28;20037;-78
2023/08/24 01:31:07;;;;;;;16.38;11.68;;;;;;;20.85;100.00;97460.09;5042270;28;20489;-79
2023/08/24 01:33:56;;;;;;;18.52;11.77;;;;;;;20.87;100.00;97458.06;5046612;28;20420;-78
2023/08/24 01:36:22;;;;;;;15.50;11.40;;;;;;;20.99;100.00;97463.06;5029760;28;20044;-78
2023/08/24 01:39:16;;;;;;;18.83;11.73;;;;;;;20.98;100.00;97465.94;5045939;28;20021;-78
2023/08/24 01:42:21;;;;;;;32.75;11.65;;;;;;;20.93;100.00;97455.56;5035023;27;20124;-79
2023/08/24 01:44:50;;;;;;;17.30;11.18;;;;;;;21.04;100.00;97463.41;5029443;28;20090;-78
2023/08/24 01:47:16;;;;;;;16.60;11.48;;;;;;;20.90;100.00;97469.47;5026875;28;20086;-78
2023/08/24 01:49:41;;;;;;;17.52;11.23;;;;;;;20.77;100.00;97466.31;5025943;28;20424;-77
2023/08/24 01:52:08;;;;;;;18.35;12.65;;;;;;;20.76;100.00;97458.34;5041535;28;20041;-78
2023/08/24 01:54:34;;;;;;;18.23;11.88;;;;;;;20.69;100.00;97460.84;5046311;28;20039;-78
2023/08/24 01:56:59;;;;;;;18.70;11.10;;;;;;;20.69;100.00;97459.97;5046137;28;20415;-78
2023/08/24 01:59:25;;;;;;;16.85;11.23;;;;;;;20.68;100.00;97470.00;5047420;28;20517;-78
2023/08/24 02:01:50;;;;;;;17.38;11.60;;;;;;;20.65;100.00;97466.75;5046177;28;20021;-79
2023/08/24 02:04:16;;;;;;;19.33;12.15;;;;;;;20.68;100.00;97466.44;5033486;28;20048;-80
2023/08/24 02:06:41;;;;;;;18.80;12.43;;;;;;;20.68;100.00;97461.00;5027243;28;20503;-80
2023/08/24 02:09:07;;;;;;;17.08;11.35;;;;;;;20.68;100.00;97459.13;5028466;28;20029;-79
2023/08/24 02:11:32;;;;;;;16.90;11.45;;;;;;;20.60;100.00;97450.06;5027479;28;20025;-79
2023/08/24 02:13:58;;;;;;;17.33;11.52;;;;;;;20.57;100.00;97451.25;5025895;28;20507;-78
2023/08/24 02:16:23;;;;;;;18.55;12.80;;;;;;;20.50;100.00;97447.44;5009596;28;20120;-79
2023/08/24 02:18:49;;;;;;;16.83;11.63;;;;;;;20.41;100.00;97451.13;5033884;28;20036;-79
2023/08/24 02:21:15;;;;;;;17.63;12.32;;;;;;;20.41;100.00;97451.13;5045617;28;20025;-79
2023/08/24 02:23:41;;;;;;;21.13;12.32;;;;;;;20.43;100.00;97454.53;5032115;28;20034;-79
2023/08/24 02:26:07;;;;;;;23.85;12.15;;;;;;;20.60;100.00;97455.50;5045571;28;20025;-79
2023/08/24 02:28:34;;;;;;;26.27;13.43;;;;;;;20.61;100.00;97459.94;5045771;28;20029;-79
2023/08/24 02:31:01;;;;;;;22.83;12.73;;;;;;;20.57;100.00;97453.09;5045783;28;20045;-79
2023/08/24 02:33:27;;;;;;;16.42;11.55;;;;;;;20.52;100.00;97454.44;5045905;28;20033;-78
2023/08/24 02:35:52;;;;;;;19.70;10.98;;;;;;;20.69;100.00;97463.56;5039379;28;20025;-78
2023/08/24 02:38:18;;;;;;;20.15;11.48;;;;;;;20.67;100.00;97462.03;5028733;28;20112;-78
2023/08/24 02:40:43;;;;;;;18.92;12.18;;;;;;;20.62;100.00;97462.47;5043707;28;20082;-78
2023/08/24 02:43:09;;;;;;;21.75;12.27;;;;;;;20.61;100.00;97463.50;5025567;28;20036;-78
2023/08/24 02:45:34;;;;;;;40.22;13.43;;;;;;;20.63;100.00;97469.63;5025706;28;20112;-78
2023/08/24 02:48:00;;;;;;;18.90;11.75;;;;;;;20.66;100.00;97455.72;5025496;28;20041;-78
2023/08/24 02:50:25;;;;;;;18.02;12.13;;;;;;;20.64;100.00;97463.16;5027199;28;20458;-78
2023/08/24 02:52:52;;;;;;;23.33;11.40;;;;;;;20.65;100.00;97477.63;5046203;28;20376;-77
2023/08/24 02:55:17;;;;;;;24.48;12.85;;;;;;;20.60;100.00;97466.38;5043308;28;20025;-78
2023/08/24 02:57:43;;;;;;;15.85;11.43;;;;;;;20.49;100.00;97470.19;5025667;28;20037;-78
2023/08/24 03:00:09;;;;;;;17.33;11.75;;;;;;;20.56;100.00;97468.56;5094818;28;20032;-77
2023/08/24 03:02:36;;;;;;;18.67;11.18;;;;;;;20.70;100.00;97467.13;5029117;28;20113;-76
2023/08/24 03:05:02;;;;;;;17.17;11.20;;;;;;;20.82;100.00;97474.00;5042609;28;20077;-76
2023/08/24 03:07:28;;;;;;;18.98;12.40;;;;;;;20.72;100.00;97476.84;5028844;28;21021;-77
2023/08/24 03:09:53;;;;;;;33.35;15.18;;;;;;;20.66;100.00;97482.06;5028888;28;20056;-76
2023/08/24 03:12:19;;;;;;;53.20;17.83;;;;;;;20.66;100.00;97482.06;5012488;28;20038;-77
2023/08/24 03:14:44;;;;;;;49.97;19.20;;;;;;;20.70;100.00;97484.31;5028821;28;20467;-76
2023/08/24 03:17:10;;;;;;;30.42;14.48;;;;;;;20.71;100.00;97490.56;5030864;28;20033;-77
2023/08/24 03:19:35;;;;;;;19.02;11.48;;;;;;;20.61;100.00;97495.28;5049056;28;20033;-79
2023/08/24 03:22:01;;;;;;;19.48;12.20;;;;;;;20.58;100.00;97496.44;5034835;28;20085;-80
2023/08/24 03:24:26;;;;;;;34.38;12.13;;;;;;;20.55;100.00;97497.59;5023811;28;20033;-83
2023/08/24 03:26:51;;;;;;;20.45;12.70;;;;;;;20.51;100.00;97511.69;5026476;28;20037;-79
2023/08/24 03:29:17;;;;;;;25.02;12.70;;;;;;;20.45;100.00;97507.72;5045627;28;20082;-80
2023/08/24 03:31:42;;;;;;;26.48;13.40;;;;;;;20.42;100.00;97513.47;5044393;28;20045;-80
2023/08/24 03:34:08;;;;;;;33.72;14.30;;;;;;;20.41;100.00;97510.91;5045803;28;20021;-85
2023/08/24 03:36:33;;;;;;;24.33;13.02;;;;;;;20.34;100.00;97515.25;5039283;28;20488;-86
2023/08/24 03:38:59;;;;;;;34.70;14.15;;;;;;;20.36;100.00;97513.25;5010493;28;20033;-82
2023/08/24 03:41:24;;;;;;;38.38;14.73;;;;;;;20.33;100.00;97514.38;5028587;28;20033;-82
2023/08/24 03:43:50;;;;;;;37.63;13.95;;;;;;;20.37;100.00;97523.09;5045957;28;20024;-77
2023/08/24 03:46:15;;;;;;;49.45;16.02;;;;;;;20.39;100.00;97524.66;5024661;28;20053;-83
2023/08/24 03:48:41;;;;;;;53.33;20.30;;;;;;;20.35;100.00;97515.09;5042979;28;20037;-84
2023/08/24 03:51:07;;;;;;;47.78;17.33;;;;;;;20.34;100.00;97513.38;5035499;28;20093;-84
2023/08/24 03:53:32;;;;;;;38.13;15.95;;;;;;;20.34;100.00;97513.38;5040506;28;20029;-83
2023/08/24 03:55:58;;;;;;;19.10;12.18;;;;;;;20.37;100.00;97513.06;5035747;28;20021;-83
2023/08/24 03:58:23;;;;;;;24.75;13.18;;;;;;;20.34;100.00;97510.69;5038194;28;20029;-81
2023/08/24 04:00:50;;;;;;;24.50;12.57;;;;;;;20.32;100.00;97518.13;5028756;28;20432;-83
2023/08/24 04:03:15;;;;;;;21.33;13.30;;;;;;;20.34;100.00;97516.09;5026500;28;20025;-85
2023/08/24 04:05:41;;;;;;;18.40;12.95;;;;;;;20.38;100.00;97512.06;5043650;28;20411;-84
2023/08/24 04:08:07;;;;;;;27.15;13.75;;;;;;;20.47;100.00;97513.84;5046891;28;20025;-84
2023/08/24 04:10:33;;;;;;;27.48;14.98;;;;;;;20.48;100.00;97507.41;5041418;28;20028;-83
2023/08/24 04:12:58;;;;;;;24.40;13.18;;;;;;;20.59;100.00;97505.44;5027594;28;20029;-84
2023/08/24 04:15:24;;;;;;;30.00;14.07;;;;;;;20.64;100.00;97505.84;5042352;28;20052;-84
2023/08/24 04:17:49;;;;;;;30.63;14.68;;;;;;;20.70;100.00;97506.06;5009939;28;20056;-83
2023/08/24 04:20:15;;;;;;;26.00;14.63;;;;;;;20.78;100.00;97502.53;5030767;28;20044;-84
2023/08/24 04:22:42;;;;;;;21.98;14.50;;;;;;;20.84;100.00;97508.19;5026260;28;20029;-83
2023/08/24 04:25:07;;;;;;;38.78;16.15;;;;;;;20.90;100.00;97502.09;5025264;28;20074;-83
2023/08/24 04:27:33;;;;;;;26.88;12.77;;;;;;;20.96;100.00;97509.63;5025034;28;20389;-83
2023/08/24 04:29:59;;;;;;;22.08;13.20;;;;;;;21.00;100.00;97512.88;5032466;28;20492;-83
2023/08/24 04:32:24;;;;;;;33.63;13.20;;;;;;;20.99;100.00;97509.31;5030303;28;20060;-83
2023/08/24 04:34:50;;;;;;;30.88;14.32;;;;;;;21.06;100.00;97515.81;5016564;28;20404;-84
2023/08/24 04:37:15;;;;;;;30.73;13.93;;;;;;;21.12;100.00;97518.94;5015504;28;20033;-84
2023/08/24 04:39:41;;;;;;;30.58;13.73;;;;;;;21.08;100.00;97516.53;5044452;28;20443;-82
2023/08/24 04:42:07;;;;;;;39.40;14.90;;;;;;;21.23;100.00;97505.03;5033125;28;20025;-84
2023/08/24 04:44:33;;;;;;;106.10;18.50;;;;;;;21.19;100.00;97512.69;5025354;28;20562;-84
2023/08/24 04:46:58;;;;;;;43.50;16.60;;;;;;;21.26;100.00;97512.88;5026578;28;20029;-84
2023/08/24 04:49:24;;;;;;;32.72;18.67;;;;;;;21.29;100.00;97515.25;5032684;28;20107;-85
2023/08/24 04:51:49;;;;;;;33.38;17.60;;;;;;;21.49;100.00;97517.59;5044568;28;20456;-84
2023/08/24 04:54:15;;;;;;;52.40;17.85;;;;;;;21.67;100.00;97516.63;5044583;28;20093;-85
2023/08/24 04:56:40;;;;;;;41.80;16.20;;;;;;;21.71;100.00;97513.44;5015674;28;20093;-85
2023/08/24 04:59:07;;;;;;;38.38;15.90;;;;;;;21.81;100.00;97519.56;5027603;28;20029;-85
2023/08/24 05:01:33;;;;;;;52.40;15.70;;;;;;;21.89;100.00;97526.97;5044770;28;20079;-84
2023/08/24 05:03:59;;;;;;;48.50;15.60;;;;;;;22.05;100.00;97519.69;5037354;28;20575;-84
2023/08/24 05:06:24;;;;;;;59.65;17.60;;;;;;;22.11;100.00;97527.19;5026708;28;20033;-84
2023/08/24 05:08:50;;;;;;;55.53;18.02;;;;;;;22.29;100.00;97534.38;5024726;28;20116;-83
2023/08/24 05:11:20;;;;;;;33.20;15.63;;;;;;;22.43;100.00;97523.63;5046321;28;20407;-84
2023/08/24 05:13:46;;;;;;;21.75;12.63;;;;;;;22.59;100.00;97525.53;5044870;28;20093;-84
2023/08/24 05:16:12;;;;;;;36.85;12.43;;;;;;;22.81;100.00;97530.34;5039265;28;20029;-84
2023/08/24 05:18:38;;;;;;;31.30;12.93;;;;;;;22.91;100.00;97531.00;5040506;28;20035;-84
2023/08/24 05:21:04;;;;;;;27.98;14.32;;;;;;;22.95;100.00;97528.78;5039306;28;20029;-84
2023/08/24 05:23:33;;;;;;;29.52;14.65;;;;;;;22.79;100.00;97526.94;5035342;28;20041;-82
2023/08/24 05:26:00;;;;;;;26.20;13.63;;;;;;;22.93;100.00;97539.88;5033791;28;20108;-82
2023/08/24 05:28:27;;;;;;;34.72;13.38;;;;;;;23.04;100.00;97534.03;5044370;28;20025;-83
2023/08/24 05:30:53;;;;;;;29.85;13.60;;;;;;;23.23;100.00;97535.53;5043878;28;20056;-82
2023/08/24 05:33:20;;;;;;;49.03;13.35;;;;;;;23.38;100.00;97549.34;5028545;28;20120;-82
2023/08/24 05:35:46;;;;;;;47.63;16.52;;;;;;;23.52;100.00;97540.47;5024518;28;20396;-83
2023/08/24 05:38:12;;;;;;;55.53;15.10;;;;;;;23.47;100.00;97548.34;5036119;28;20029;-82
2023/08/24 05:40:42;;;;;;;41.92;15.32;;;;;;;23.49;100.00;97540.81;5033382;28;20046;-82
2023/08/24 05:43:40;;;;;;;27.20;13.05;;;;;;;23.66;100.00;97536.97;5026451;28;20037;-83
2023/08/24 05:46:05;;;;;;;33.60;12.70;;;;;;;23.71;100.00;97540.06;5034726;28;20125;-82
2023/08/24 05:48:31;;;;;;;23.02;12.52;;;;;;;23.84;100.00;97544.94;5030872;28;20084;-82
2023/08/24 05:50:57;;;;;;;23.02;12.38;;;;;;;23.91;100.00;97545.91;5036344;28;20432;-83
2023/08/24 05:53:22;;;;;;;26.38;12.60;;;;;;;24.17;100.00;97547.38;5027205;28;20089;-83
2023/08/24 05:55:48;;;;;;;24.88;12.85;;;;;;;24.29;100.00;97550.53;5043949;28;20029;-83
2023/08/24 05:58:14;;;;;;;19.25;12.48;;;;;;;24.55;100.00;97551.03;5017040;28;20093;-83
2023/08/24 06:00:39;;;;;;;33.75;13.23;;;;;;;24.62;100.00;97556.63;5031808;28;20065;-83
2023/08/24 06:03:05;;;;;;;27.88;14.00;;;;;;;24.38;100.00;97543.13;5044296;28;20025;-80
2023/08/24 06:05:33;;;;;;;47.15;14.63;;;;;;;24.27;100.00;97556.16;5043858;28;20042;-80
2023/08/24 06:07:59;;;;;;;40.83;15.20;;;;;;;24.18;100.00;97565.44;5036520;28;20021;-79
2023/08/24 06:10:26;;;;;;;39.83;14.32;;;;;;;24.20;100.00;97563.41;5025079;28;20433;-78
2023/08/24 06:12:52;;;;;;;64.30;18.33;;;;;;;24.32;100.00;97563.00;5024916;28;20025;-79
2023/08/24 06:15:19;;;;;;;47.65;16.25;;;;;;;24.33;100.00;97554.63;5035115;28;20032;-79
2023/08/24 06:17:46;;;;;;;40.17;14.80;;;;;;;24.41;100.00;97559.16;5045190;28;20478;-80
2023/08/24 06:20:13;;;;;;;37.15;14.93;;;;;;;24.38;100.00;97559.53;5044989;28;20051;-80
2023/08/24 06:22:38;;;;;;;54.47;19.55;;;;;;;24.39;100.00;97553.03;5043793;28;20048;-80
2023/08/24 06:25:05;;;;;;;62.08;17.85;;;;;;;24.30;100.00;97563.19;5031205;28;20036;-79
2023/08/24 06:27:30;;;;;;;61.17;17.88;;;;;;;24.63;100.00;97563.81;5027281;28;20122;-80
2023/08/24 06:29:56;;;;;;;57.83;15.23;;;;;;;25.68;100.00;97555.50;5043535;28;20103;-80
2023/08/24 06:32:21;;;;;;;33.63;13.02;;;;;;;26.30;100.00;97544.09;5045257;28;20053;-80
2023/08/24 06:34:47;;;;;;;29.35;13.55;;;;;;;27.72;100.00;97543.88;5044618;28;20084;-80
2023/08/24 06:37:12;;;;;;;29.83;12.27;;;;;;;29.21;100.00;97543.75;5046183;28;20041;-79
2023/08/24 06:39:37;;;;;;;39.85;13.77;;;;;;;29.83;99.96;97532.28;5040520;28;20040;-77
2023/08/24 06:42:03;;;;;;;19.85;12.98;;;;;;;29.39;100.00;97536.56;5028011;28;20037;-79
2023/08/24 06:44:29;;;;;;;33.13;12.27;;;;;;;29.18;100.00;97528.50;5046446;28;20029;-79
2023/08/24 06:46:54;;;;;;;30.42;12.57;;;;;;;29.32;97.85;97535.72;5029775;28;20044;-79
2023/08/24 06:49:20;;;;;;;29.90;12.38;;;;;;;28.94;100.00;97548.41;5036412;28;20037;-79
2023/08/24 06:51:45;;;;;;;19.73;11.63;;;;;;;29.65;97.45;97534.84;5026778;28;20025;-79
2023/08/24 06:54:14;;;;;;;21.98;12.57;;;;;;;30.53;89.95;97529.47;5039940;28;20476;-79
2023/08/24 06:56:40;;;;;;;22.27;12.05;;;;;;;30.57;87.34;97530.72;5029770;28;20152;-84
2023/08/24 06:59:05;;;;;;;29.42;11.50;;;;;;;30.41;87.45;97533.97;5046813;28;20033;-84
2023/08/24 07:01:31;;;;;;;30.70;11.93;;;;;;;30.67;86.96;97541.25;5029921;28;20037;-83
2023/08/24 07:03:57;;;;;;;22.08;11.30;;;;;;;31.87;79.18;97526.25;5037299;28;20477;-84
2023/08/24 07:06:23;;;;;;;18.17;11.20;;;;;;;32.46;70.59;97518.06;5026700;28;20090;-86
2023/08/24 07:08:51;;;;;;;18.77;10.70;;;;;;;33.60;62.26;97501.16;5028070;28;20084;-85
2023/08/24 07:11:17;;;;;;;20.58;10.38;;;;;;;34.04;59.34;97505.22;5041203;28;20017;-85
2023/08/24 07:13:42;;;;;;;18.13;11.30;;;;;;;34.47;56.44;97503.91;5029983;28;20105;-85
2023/08/24 07:16:08;;;;;;;22.33;10.93;;;;;;;35.23;53.28;97500.66;5041985;28;20097;-86
2023/08/24 07:18:33;;;;;;;17.77;9.57;;;;;;;36.75;48.86;97492.53;5039197;28;20033;-86
2023/08/24 07:20:59;;;;;;;15.98;9.75;;;;;;;36.71;47.05;97491.38;5009777;28;20056;-84
2023/08/24 07:23:24;;;;;;;17.88;9.68;;;;;;;38.08;44.67;97490.63;5025957;28;20033;-85
2023/08/24 07:25:50;;;;;;;21.05;9.60;;;;;;;38.57;43.29;97478.00;5028977;28;20021;-85
2023/08/24 07:28:15;;;;;;;59.22;11.27;;;;;;;38.71;42.16;97481.94;5029091;28;20028;-85
2023/08/24 07:30:41;;;;;;;21.77;9.70;;;;;;;38.72;41.68;97483.63;5030408;28;20511;-85
2023/08/24 07:33:06;;;;;;;22.55;10.27;;;;;;;38.23;42.34;97473.91;5065499;28;20044;-84
2023/08/24 07:35:32;;;;;;;17.75;10.18;;;;;;;38.24;42.27;97470.03;5048988;28;20064;-85
2023/08/24 07:37:58;;;;;;;21.02;16.35;;;;;;;38.53;40.83;97464.81;5029570;28;20503;-84
2023/08/24 07:40:23;;;;;;;21.33;10.10;;;;;;;38.32;40.96;97453.56;5029820;28;20029;-84
2023/08/24 07:42:52;;;;;;;17.95;10.80;;;;;;;37.85;41.67;97461.97;5036724;28;20096;-84
2023/08/24 07:45:18;;;;;;;20.80;10.68;;;;;;;37.92;42.13;97476.56;5042304;28;20086;-84
2023/08/24 07:47:44;;;;;;;26.85;11.90;;;;;;;38.65;41.14;97468.19;5030558;28;20029;-84
2023/08/24 07:50:10;;;;;;;38.40;10.98;;;;;;;39.47;39.92;97456.88;5048123;28;20476;-84
2023/08/24 07:52:37;;;;;;;26.80;11.35;;;;;;;39.76;38.94;97460.75;5042577;28;20029;-85
2023/08/24 07:55:04;;;;;;;26.17;11.35;;;;;;;39.80;38.49;97464.69;5046182;28;20412;-85
2023/08/24 07:57:31;;;;;;;29.50;11.88;;;;;;;40.24;38.31;97458.41;5034075;28;20025;-85
2023/08/24 07:59:57;;;;;;;46.15;11.52;;;;;;;40.42;37.92;97455.81;5046573;28;20404;-85
2023/08/24 08:02:23;;;;;;;31.65;10.95;;;;;;;41.36;36.51;97446.22;5048443;28;20033;-86
2023/08/24 08:04:48;;;;;;;16.38;10.20;;;;;;;42.10;34.95;97447.72;5032547;28;20504;-86
2023/08/24 08:07:14;;;;;;;18.40;9.73;;;;;;;42.83;33.74;97445.38;5029276;28;20030;-86
2023/08/24 08:09:39;;;;;;;31.63;10.05;;;;;;;42.11;34.25;97438.16;5028347;28;20029;-86
2023/08/24 08:12:05;;;;;;;10.75;9.30;;;;;;;41.30;35.11;97444.56;5027890;28;20021;-84
2023/08/24 08:14:31;;;;;;;25.38;11.05;;;;;;;42.35;34.11;97438.16;5028508;28;20025;-84
2023/08/24 08:16:57;;;;;;;16.50;9.82;;;;;;;42.87;33.53;97439.97;5029133;28;20034;-85
2023/08/24 08:19:25;;;;;;;13.15;9.50;;;;;;;43.78;32.23;97439.31;5036279;28;20174;-86
2023/08/24 08:21:50;;;;;;;16.52;10.52;;;;;;;44.23;31.51;97434.78;5043414;28;20069;-86
2023/08/24 08:24:16;;;;;;;25.15;9.77;;;;;;;44.57;31.53;97437.19;5027631;28;20533;-86
2023/08/24 08:26:41;;;;;;;21.23;10.48;;;;;;;43.99;31.26;97434.13;5028155;28;20025;-86
2023/08/24 08:29:07;;;;;;;21.25;10.65;;;;;;;43.50;31.69;97429.13;5028480;28;20447;-85
2023/08/24 08:31:32;;;;;;;22.48;11.05;;;;;;;43.28;31.62;97417.66;5031249;28;20135;-85
2023/08/24 08:33:58;;;;;;;18.38;10.55;;;;;;;43.16;31.84;97421.78;5038491;28;20017;-85
2023/08/24 08:36:24;;;;;;;22.67;10.93;;;;;;;43.54;31.97;97419.72;5033887;28;20028;-85
2023/08/24 08:38:49;;;;;;;20.52;10.75;;;;;;;43.53;31.18;97420.06;5047772;28;20550;-86
2023/08/24 08:41:17;;;;;;;23.45;11.02;;;;;;;44.36;30.64;97419.84;5046868;28;20025;-85
2023/08/24 08:43:46;;;;;;;17.23;10.55;;;;;;;45.30;29.70;97421.91;5047894;28;20025;-86
2023/08/24 08:46:13;;;;;;;11.43;10.02;;;;;;;46.31;28.19;97405.84;5031316;28;20108;-86
2023/08/24 08:48:41;;;;;;;11.68;10.55;;;;;;;45.89;28.07;97398.00;5049599;28;20017;-86
2023/08/24 08:51:07;;;;;;;14.13;9.95;;;;;;;45.19;28.97;97396.69;5049037;28;20496;-86
2023/08/24 08:53:32;;;;;;;15.88;9.85;;;;;;;45.64;28.60;97400.34;5028869;28;20033;-87
2023/08/24 08:56:03;;;;;;;11.63;9.23;;;;;;;46.07;28.40;97386.47;5027691;28;20075;-86
2023/08/24 08:58:28;;;;;;;16.40;9.80;;;;;;;46.59;27.94;97390.28;5027921;28;20026;-86
2023/08/24 09:00:54;;;;;;;12.15;9.77;;;;;;;46.72;27.72;97380.78;5027141;28;20502;-86
2023/08/24 09:03:20;;;;;;;13.85;9.63;;;;;;;45.94;28.56;97389.38;5044099;28;20108;-86
2023/08/24 09:05:49;;;;;;;11.48;9.65;;;;;;;46.69;27.87;97384.28;5047738;28;20025;-86
2023/08/24 09:08:17;;;;;;;14.95;9.50;;;;;;;46.80;27.70;97379.16;5016990;28;20092;-85
2023/08/24 09:10:44;;;;;;;15.57;9.68;;;;;;;46.19;28.19;97364.00;5043822;28;20032;-86
2023/08/24 09:13:09;;;;;;;20.40;10.55;;;;;;;46.89;27.78;97371.47;5044387;28;20056;-86
2023/08/24 09:15:36;;;;;;;17.13;10.30;;;;;;;47.63;26.89;97362.72;5010751;28;20403;-85
2023/08/24 09:18:03;;;;;;;13.68;10.20;;;;;;;47.09;27.26;97362.31;5032988;28;20487;-85
2023/08/24 09:20:29;;;;;;;33.35;12.25;;;;;;;47.03;27.62;97366.47;5047069;28;20029;-86
2023/08/24 09:22:57;;;;;;;32.45;10.00;;;;;;;47.01;27.36;97353.81;5047305;28;20057;-86
2023/08/24 09:25:25;;;;;;;11.30;10.00;;;;;;;47.77;26.09;97357.69;5039301;28;20026;-86
2023/08/24 09:28:02;;;;;;;11.88;9.30;;;;;;;47.30;26.73;97356.78;5026869;28;20475;-86
2023/08/24 09:30:31;;;;;;;14.18;9.82;;;;;;;47.05;27.02;97347.13;5042193;28;20452;-85
2023/08/24 09:33:04;;;;;;;14.25;9.73;;;;;;;47.61;26.57;97339.53;5027323;28;20031;-86
2023/08/24 09:35:35;;;;;;;13.13;9.50;;;;;;;48.08;26.16;97340.34;5042762;28;20094;-86
2023/08/24 09:38:01;;;;;;;13.70;9.90;;;;;;;47.98;26.40;97330.22;5035548;28;20033;-85
2023/08/24 09:40:26;;;;;;;28.98;10.20;;;;;;;47.90;26.24;97328.28;5033112;28;20028;-86
2023/08/24 09:42:52;;;;;;;15.80;9.93;;;;;;;47.59;26.65;97327.72;5051429;28;20032;-86
2023/08/24 09:45:17;;;;;;;14.27;9.90;;;;;;;48.03;25.72;97323.50;5026642;28;20097;-86
2023/08/24 09:47:49;;;;;;;10.60;9.50;;;;;;;47.48;26.26;97323.53;5027075;28;20026;-86
2023/08/24 09:50:15;;;;;;;10.48;9.38;;;;;;;48.05;25.72;97324.84;5041040;28;20388;-86
2023/08/24 09:52:42;;;;;;;10.75;9.65;;;;;;;47.70;25.74;97314.81;5027285;28;20024;-86
2023/08/24 09:55:11;;;;;;;10.88;9.63;;;;;;;47.33;25.85;97313.59;5026678;28;20053;-86
2023/08/24 09:57:38;;;;;;;10.07;9.13;;;;;;;48.33;25.41;97314.66;5015586;28;20076;-86
2023/08/24 10:00:14;;;;;;;10.55;9.50;;;;;;;49.10;24.59;97321.75;5046619;28;20025;-87
2023/08/24 10:02:59;;;;;;;10.98;9.65;;;;;;;49.26;23.94;97302.81;5046588;28;20036;-87
2023/08/24 10:05:26;;;;;;;18.73;9.82;;;;;;;48.99;24.16;97302.63;5029316;28;20432;-87
2023/08/24 10:07:56;;;;;;;16.15;9.23;;;;;;;49.12;24.12;97290.94;5036049;28;20029;-87
2023/08/24 10:10:25;;;;;;;12.82;10.13;;;;;;;48.69;24.16;97293.34;5035753;28;20121;-87
2023/08/24 10:13:08;;;;;;;20.95;9.35;;;;;;;48.41;24.65;97290.22;5026129;28;20109;-87
2023/08/24 10:15:34;;;;;;;10.35;9.35;;;;;;;47.33;25.10;97273.88;5006985;28;20049;-87
2023/08/24 10:18:01;;;;;;;10.60;9.30;;;;;;;47.20;25.73;97272.91;5026549;28;20416;-87
2023/08/24 10:20:27;;;;;;;12.13;8.95;;;;;;;47.33;25.94;97263.38;5034445;28;20086;-87
2023/08/24 10:22:53;;;;;;;12.95;9.88;;;;;;;48.18;25.26;97261.28;5039017;28;20032;-87
2023/08/24 10:25:19;;;;;;;14.27;9.90;;;;;;;48.37;24.75;97247.47;5027859;28;20037;-87
2023/08/24 10:27:47;;;;;;;14.07;9.73;;;;;;;48.48;24.62;97247.88;5026679;28;20089;-87
2023/08/24 10:30:13;;;;;;;11.30;10.15;;;;;;;49.07;23.91;97237.13;5039599;28;20500;-86
2023/08/24 10:32:40;;;;;;;15.63;9.85;;;;;;;49.45;23.81;97250.25;5046111;28;20045;-87
2023/08/24 10:35:06;;;;;;;16.52;10.00;;;;;;;48.29;24.14;97241.88;5038271;28;20495;-87
2023/08/24 10:37:34;;;;;;;11.93;9.50;;;;;;;47.57;25.25;97250.63;5033695;28;20029;-87
2023/08/24 10:40:00;;;;;;;16.50;10.35;;;;;;;45.68;26.86;97247.84;5031283;28;20065;-87
2023/08/24 10:42:26;;;;;;;16.45;11.15;;;;;;;46.70;26.02;97254.81;5028642;28;20040;-87
2023/08/24 10:44:52;;;;;;;18.70;10.73;;;;;;;47.47;25.32;97257.47;5029431;28;20552;-87
2023/08/24 10:47:17;;;;;;;19.02;10.15;;;;;;;49.11;23.86;97255.16;5046153;28;20108;-88
2023/08/24 10:49:58;;;;;;;12.57;9.18;;;;;;;49.04;23.39;97252.03;5047335;28;20428;-86
2023/08/24 10:52:38;;;;;;;11.73;10.52;;;;;;;48.63;24.10;97252.13;5019538;28;20036;-87
2023/08/24 10:55:05;;;;;;;16.23;10.50;;;;;;;50.78;22.50;97244.44;5037365;28;20108;-87
2023/08/24 10:57:38;;;;;;;10.95;9.93;;;;;;;49.96;22.61;97223.13;5031160;28;20399;-87
2023/08/24 11:00:12;;;;;;;15.35;9.95;;;;;;;51.38;22.04;97224.16;5010227;28;20029;-88
2023/08/24 11:02:45;;;;;;;10.30;8.75;;;;;;;49.84;22.19;97210.56;5042239;28;20021;-88
2023/08/24 11:05:42;;;;;;;13.18;9.45;;;;;;;49.86;22.60;97230.16;5039910;28;20487;-88
2023/08/24 11:08:07;;;;;;;10.85;9.20;;;;;;;49.59;22.28;97236.53;5012275;28;20033;-83
2023/08/24 11:10:42;;;;;;;12.15;8.98;;;;;;;49.36;23.05;97256.91;5026752;28;20038;-83
2023/08/24 11:13:08;;;;;;;18.33;9.52;;;;;;;48.46;24.10;97266.47;5040130;28;20496;-83